map of SMV home
SMV - Airport
Location
City:  St. Moritz / Samedan, Graubünden, Switzerland
Name:Samedan Airport
Old (Alt.):Engadine Airport
ICAO:LSZS
IATA:SMV

Details
Type:Airport (Flugplatz, Airfield)
Use:Public/Civil, Military, International (customs port of entry)
Latitude:46°32'03"N (46.534075)
Longitude:9°53'03"E (9.884106)
Datum:WGS 1984
Elevation:5600 ft (1707 m)
Variation:2.98°E (WMM2015v2 magnetic declination)
0.15° annual change
Runways:1
Longest:5905 × 130 ft (1800 × 39.5 m), paved

Time
Time Zone:UTC+1 (DST+2)
Local Time:

Weather
METAR:LSZS 041350Z 00000KT CAVOK M07/M13 Q1022 RMK O

Related Locations
Nearby:
Farthest:CHT: 12075 mi / 19433 km
Waitangi [Tuuta], CIT, NZ

Find:

   beyond  
but within

Other Information
Maps:
NOTAMs:
Links:
Sources:

  
  • flag of Switzerland
  • flag of Graubünden
  

Sectional Chart

Flight Planning
at skyvector.com

Satellite Image

Google Maps Satellite view

 

Copyright © 2004-2019 Karl L. Swartz. All rights reserved.
The Great Circle Mapper name and logo are trademarks of the Great Circle Mapper.
All other trademarks mentioned herein belong to their respective owners.
Please see credits for attibutions and further copyright information.

  Follow gcmap on Facebook Follow gcmap on Twitter GCmap on LinkedIn

hCard Microformat

Geo Microformat